createdAt,value
2022-08-25T00:02:12.421Z,19.94
2022-08-25T00:04:39.017Z,19.92
2022-08-25T00:07:07.026Z,19.90
2022-08-25T00:09:34.692Z,19.89
2022-08-25T00:12:02.983Z,19.87
2022-08-25T00:14:35.963Z,19.85
2022-08-25T00:17:05.212Z,19.82
2022-08-25T00:19:35.393Z,19.80
2022-08-25T00:22:02.752Z,19.78
2022-08-25T00:24:29.684Z,19.76
2022-08-25T00:26:58.226Z,19.74
2022-08-25T00:29:26.370Z,19.72
2022-08-25T00:31:53.912Z,19.70
2022-08-25T00:34:23.826Z,19.68
2022-08-25T00:36:53.375Z,19.66
2022-08-25T00:39:22.910Z,19.64
2022-08-25T00:41:51.157Z,19.62
2022-08-25T00:44:18.856Z,19.60
2022-08-25T00:46:51.730Z,19.61
2022-08-25T00:49:29.353Z,19.59
2022-08-25T00:52:02.928Z,19.57
2022-08-25T00:54:37.626Z,19.56
2022-08-25T00:57:05.707Z,19.54
2022-08-25T00:59:32.809Z,19.51
2022-08-25T01:01:59.978Z,19.50
2022-08-25T01:04:27.295Z,19.49
2022-08-25T01:06:55.728Z,19.47
2022-08-25T01:09:22.617Z,19.44
2022-08-25T01:11:49.521Z,19.42
2022-08-25T01:14:18.206Z,19.39
2022-08-25T01:16:45.291Z,19.37
2022-08-25T01:19:15.387Z,19.36
2022-08-25T01:21:48.261Z,19.35
2022-08-25T01:24:31.762Z,19.33
2022-08-25T01:26:58.553Z,19.30
2022-08-25T01:29:27.689Z,19.27
2022-08-25T01:32:00.252Z,19.27
2022-08-25T01:34:29.846Z,19.25
2022-08-25T01:36:57.797Z,19.24
2022-08-25T01:39:26.680Z,19.20
2022-08-25T01:42:02.791Z,19.17
2022-08-25T01:44:30.820Z,19.15
2022-08-25T01:46:57.406Z,19.13
2022-08-25T01:49:23.893Z,19.11
2022-08-25T01:52:01.326Z,19.09
2022-08-25T01:54:27.889Z,19.08
2022-08-25T01:56:54.424Z,19.08
2022-08-25T01:59:24.121Z,19.05
2022-08-25T02:01:51.886Z,19.04
2022-08-25T02:04:26.871Z,19.01
2022-08-25T02:06:53.409Z,19.00
2022-08-25T02:09:19.904Z,18.98
2022-08-25T02:11:47.860Z,18.96
2022-08-25T02:14:16.888Z,18.94
2022-08-25T02:16:48.293Z,18.93
2022-08-25T02:19:15.597Z,18.91
2022-08-25T02:21:42.412Z,18.89
2022-08-25T02:24:09.987Z,18.87
2022-08-25T02:26:36.577Z,18.84
2022-08-25T02:29:04.604Z,18.82
2022-08-25T02:31:31.541Z,18.82
2022-08-25T02:33:58.127Z,18.79
2022-08-25T02:36:24.826Z,18.77
2022-08-25T02:38:51.355Z,18.76
2022-08-25T02:41:21.441Z,18.73
2022-08-25T02:43:49.409Z,18.70
2022-08-25T02:46:19.925Z,18.66
2022-08-25T02:48:47.809Z,18.66
2022-08-25T02:51:14.804Z,18.63
2022-08-25T02:53:42.184Z,18.59
2022-08-25T02:56:10.519Z,18.57
2022-08-25T02:58:38.704Z,18.54
2022-08-25T03:01:06.800Z,18.53
2022-08-25T03:03:38.828Z,18.51
2022-08-25T03:06:08.668Z,18.48
2022-08-25T03:08:36.793Z,18.48
2022-08-25T03:11:05.079Z,18.44
2022-08-25T03:13:32.611Z,18.40
2022-08-25T03:16:00.600Z,18.36
2022-08-25T03:18:27.636Z,18.32
2022-08-25T03:20:55.106Z,18.29
2022-08-25T03:23:21.670Z,18.26
2022-08-25T03:26:07.229Z,18.24
2022-08-25T03:28:33.978Z,18.22
2022-08-25T03:31:01.178Z,18.19
2022-08-25T03:33:30.237Z,18.17
2022-08-25T03:35:57.457Z,18.16
2022-08-25T03:38:25.326Z,18.14
2022-08-25T03:40:52.497Z,18.13
2022-08-25T03:43:19.625Z,18.11
2022-08-25T03:45:47.212Z,18.09
2022-08-25T03:48:15.181Z,18.07
2022-08-25T03:50:50.468Z,18.04
2022-08-25T03:53:18.922Z,18.01
2022-08-25T03:55:45.615Z,17.98
2022-08-25T03:58:12.394Z,17.96
2022-08-25T04:00:39.381Z,17.94
2022-08-25T04:03:06.039Z,17.92
2022-08-25T04:05:32.742Z,17.89
2022-08-25T04:08:01.821Z,17.88
2022-08-25T04:10:29.291Z,17.86
2022-08-25T04:12:56.212Z,17.85
2022-08-25T04:15:24.899Z,17.82
2022-08-25T04:17:55.369Z,17.83
2022-08-25T04:20:22.049Z,17.82
2022-08-25T04:22:48.637Z,17.81
2022-08-25T04:25:15.223Z,17.80
2022-08-25T04:27:42.103Z,17.81
2022-08-25T04:30:09.870Z,17.80
2022-08-25T04:32:37.033Z,17.80
2022-08-25T04:35:05.280Z,17.80
2022-08-25T04:37:32.474Z,17.81
2022-08-25T04:39:59.067Z,17.80
2022-08-25T04:42:27.165Z,17.80
2022-08-25T04:44:54.498Z,17.81
2022-08-25T04:47:21.266Z,17.81
2022-08-25T04:49:47.858Z,17.81
2022-08-25T04:52:17.283Z,17.82
2022-08-25T04:54:43.995Z,17.83
2022-08-25T04:57:10.972Z,17.86
2022-08-25T04:59:37.924Z,17.88
2022-08-25T05:02:06.674Z,17.89
2022-08-25T05:04:35.514Z,17.92
2022-08-25T05:07:03.073Z,17.96
2022-08-25T05:09:32.488Z,17.99
2022-08-25T05:12:00.993Z,18.02
2022-08-25T05:14:28.682Z,18.07
2022-08-25T05:16:56.103Z,18.14
2022-08-25T05:19:24.102Z,18.21
2022-08-25T05:21:51.273Z,18.30
2022-08-25T05:24:18.359Z,18.35
2022-08-25T05:26:44.850Z,18.39
2022-08-25T05:29:12.745Z,18.42
2022-08-25T05:31:43.176Z,18.45
2022-08-25T05:34:12.161Z,18.47
2022-08-25T05:36:43.137Z,18.50
2022-08-25T05:39:10.565Z,18.55
2022-08-25T05:41:37.812Z,18.60
2022-08-25T05:44:04.508Z,18.66
2022-08-25T05:46:32.053Z,18.71
2022-08-25T05:48:59.170Z,18.76
2022-08-25T05:51:26.751Z,18.82
2022-08-25T05:53:54.054Z,18.87
2022-08-25T05:56:21.603Z,18.94
2022-08-25T05:58:48.885Z,19.01
2022-08-25T06:01:43.548Z,19.08
2022-08-25T06:04:12.397Z,19.15
2022-08-25T06:06:39.572Z,19.22
2022-08-25T06:09:08.573Z,19.30
2022-08-25T06:11:37.300Z,19.35
2022-08-25T06:14:04.649Z,19.43
2022-08-25T06:16:31.531Z,19.48
2022-08-25T06:18:58.688Z,19.56
2022-08-25T06:21:25.442Z,19.62
2022-08-25T06:23:52.728Z,19.69
2022-08-25T06:26:21.151Z,19.75
2022-08-25T06:28:52.140Z,19.81
2022-08-25T06:31:20.593Z,19.87
2022-08-25T06:33:47.316Z,19.95
2022-08-25T06:36:15.029Z,20.01
2022-08-25T06:38:41.504Z,20.07
2022-08-25T06:41:10.569Z,20.12
2022-08-25T06:43:37.100Z,20.19
2022-08-25T06:46:14.056Z,20.25
2022-08-25T06:48:41.101Z,20.34
2022-08-25T06:51:09.492Z,20.41
2022-08-25T06:53:40.613Z,20.50
2022-08-25T06:56:07.276Z,20.60
2022-08-25T06:58:34.311Z,20.68
2022-08-25T07:01:14.911Z,20.76
2022-08-25T07:03:43.731Z,20.85
2022-08-25T07:06:10.410Z,20.95
2022-08-25T07:08:37.215Z,21.05
2022-08-25T07:11:08.150Z,21.12
2022-08-25T07:13:43.974Z,21.21
2022-08-25T07:16:15.468Z,21.27
2022-08-25T07:18:44.214Z,21.34
2022-08-25T07:21:12.350Z,21.40
2022-08-25T07:23:40.076Z,21.47
2022-08-25T07:29:08.320Z,21.62
2022-08-25T07:31:35.356Z,21.69
2022-08-25T07:34:20.751Z,21.75
2022-08-25T07:36:47.581Z,21.82
2022-08-25T07:39:14.052Z,21.90
2022-08-25T07:41:42.096Z,21.97
2022-08-25T07:44:10.590Z,22.01
2022-08-25T07:46:38.256Z,22.08
2022-08-25T07:49:13.315Z,22.14
2022-08-25T07:52:04.560Z,22.22
2022-08-25T07:54:34.337Z,22.30
2022-08-25T07:57:01.563Z,22.36
2022-08-25T07:59:28.264Z,22.43
2022-08-25T08:01:54.833Z,22.51
2022-08-25T08:04:22.247Z,22.60
2022-08-25T08:06:48.707Z,22.68
2022-08-25T08:09:16.154Z,22.76
2022-08-25T08:11:53.753Z,22.89
2022-08-25T08:14:21.314Z,23.11
2022-08-25T08:16:47.773Z,23.22
2022-08-25T08:19:16.565Z,23.30
2022-08-25T08:21:43.810Z,23.35
2022-08-25T08:24:31.112Z,23.49
2022-08-25T08:26:58.927Z,23.68
2022-08-25T08:29:25.893Z,23.83
2022-08-25T08:31:52.511Z,23.99
2022-08-25T08:34:18.998Z,24.08
2022-08-25T08:36:45.566Z,24.14
2022-08-25T08:39:12.309Z,24.17
2022-08-25T08:42:17.167Z,24.25
2022-08-25T08:44:46.586Z,24.27
2022-08-25T08:47:42.697Z,24.33
2022-08-25T08:50:47.878Z,24.38
2022-08-25T08:53:23.537Z,24.47
2022-08-25T08:55:55.680Z,24.54
2022-08-25T08:58:42.289Z,24.59
2022-08-25T09:01:17.611Z,24.67
2022-08-25T09:03:55.302Z,24.72
2022-08-25T09:06:31.808Z,24.78
2022-08-25T09:09:02.041Z,24.87
2022-08-25T09:11:46.641Z,25.03
2022-08-25T09:14:35.996Z,25.29
2022-08-25T09:17:16.911Z,25.57
2022-08-25T09:20:18.900Z,25.72
2022-08-25T09:22:59.025Z,25.71
2022-08-25T09:25:52.765Z,25.62
2022-08-25T09:28:35.708Z,25.60
2022-08-25T09:31:29.805Z,25.65
2022-08-25T09:33:59.950Z,25.85
2022-08-25T09:36:27.001Z,25.96
2022-08-25T09:38:53.516Z,25.98
2022-08-25T09:41:51.555Z,26.09
2022-08-25T09:44:24.292Z,26.36
2022-08-25T09:47:01.937Z,26.42
2022-08-25T09:49:38.847Z,26.42
2022-08-25T09:52:32.558Z,26.25
2022-08-25T09:55:27.458Z,26.18
2022-08-25T09:57:56.842Z,26.22
2022-08-25T10:00:33.679Z,26.13
2022-08-25T10:03:22.704Z,25.98
2022-08-25T10:06:12.806Z,25.94
2022-08-25T10:08:45.676Z,25.94
2022-08-25T10:11:15.435Z,26.08
2022-08-25T10:13:47.432Z,26.17
2022-08-25T10:16:30.818Z,26.19
2022-08-25T10:19:10.597Z,26.18
2022-08-25T10:21:39.575Z,26.22
2022-08-25T10:24:08.457Z,26.27
2022-08-25T10:27:03.375Z,26.30
2022-08-25T10:30:03.003Z,26.32
2022-08-25T10:33:08.154Z,26.40
2022-08-25T10:36:10.360Z,26.44
2022-08-25T10:38:49.980Z,26.50
2022-08-25T10:41:39.096Z,26.62
2022-08-25T10:44:34.277Z,26.80
2022-08-25T10:47:44.004Z,26.88
2022-08-25T10:50:23.427Z,26.99
2022-08-25T10:53:00.815Z,27.03
2022-08-25T10:55:47.113Z,26.96
2022-08-25T10:58:44.684Z,26.94
2022-08-25T11:01:44.113Z,26.91
2022-08-25T11:04:47.219Z,26.91
2022-08-25T11:07:28.875Z,26.94
2022-08-25T11:10:02.740Z,26.99
2022-08-25T11:12:34.900Z,27.04
2022-08-25T11:15:09.954Z,27.03
2022-08-25T11:17:53.103Z,27.03
2022-08-25T11:20:28.694Z,27.05
2022-08-25T11:23:08.687Z,27.12
2022-08-25T11:25:43.010Z,27.17
2022-08-25T11:28:35.809Z,27.21
2022-08-25T11:31:04.421Z,27.25
2022-08-25T11:33:33.058Z,27.36
2022-08-25T11:36:12.801Z,27.53
2022-08-25T11:38:55.051Z,27.60
2022-08-25T11:41:43.391Z,27.58
2022-08-25T11:44:39.197Z,27.56
2022-08-25T11:47:27.193Z,27.60
2022-08-25T11:50:07.360Z,27.58
2022-08-25T11:52:34.978Z,27.55
2022-08-25T11:55:16.656Z,27.67
2022-08-25T11:57:46.795Z,27.77
2022-08-25T12:00:41.819Z,27.85
2022-08-25T12:03:36.818Z,27.90
2022-08-25T12:06:21.722Z,27.92
2022-08-25T12:08:48.573Z,27.95
2022-08-25T12:11:37.775Z,27.96
2022-08-25T12:14:13.937Z,27.95
2022-08-25T12:16:45.711Z,27.95
2022-08-25T12:19:26.029Z,28.01
2022-08-25T12:22:18.878Z,28.12
2022-08-25T12:25:03.257Z,28.20
2022-08-25T12:27:46.136Z,28.22
2022-08-25T12:30:45.687Z,28.27
2022-08-25T12:33:15.185Z,28.35
2022-08-25T12:35:59.164Z,28.49
2022-08-25T12:38:51.919Z,28.54
2022-08-25T12:41:27.233Z,28.59
2022-08-25T12:44:39.638Z,28.68
2022-08-25T12:47:32.350Z,28.75
2022-08-25T12:50:33.367Z,28.89
2022-08-25T12:53:13.982Z,29.05
2022-08-25T12:55:47.407Z,29.17
2022-08-25T12:58:16.208Z,29.35
2022-08-25T13:01:10.643Z,29.65
2022-08-25T13:03:58.462Z,29.86
2022-08-25T13:06:55.969Z,30.00
2022-08-25T13:09:39.769Z,29.93
2022-08-25T13:12:17.731Z,29.70
2022-08-25T13:14:52.086Z,29.57
2022-08-25T13:17:36.702Z,29.48
2022-08-25T13:20:15.889Z,29.49
2022-08-25T13:22:47.425Z,29.51
2022-08-25T13:25:18.320Z,29.46
2022-08-25T13:27:53.388Z,29.38
2022-08-25T13:30:28.997Z,29.32
2022-08-25T13:32:55.882Z,29.29
2022-08-25T13:35:32.507Z,29.33
2022-08-25T13:38:18.219Z,29.28
2022-08-25T13:40:45.482Z,29.28
2022-08-25T13:43:14.936Z,29.30
2022-08-25T13:45:47.057Z,29.35
2022-08-25T13:48:30.888Z,29.36
2022-08-25T13:51:23.752Z,29.43
2022-08-25T13:53:59.094Z,29.48
2022-08-25T13:56:41.177Z,29.57
2022-08-25T13:59:25.743Z,29.77
2022-08-25T14:01:55.098Z,29.92
2022-08-25T14:04:32.587Z,29.92
2022-08-25T14:07:14.243Z,29.89
2022-08-25T14:09:48.227Z,29.87
2022-08-25T14:12:39.451Z,29.90
2022-08-25T14:15:16.877Z,30.04
2022-08-25T14:17:59.479Z,30.04
2022-08-25T14:20:29.139Z,30.01
2022-08-25T14:22:59.353Z,29.99
2022-08-25T14:25:28.018Z,29.94
2022-08-25T14:28:08.101Z,29.90
2022-08-25T14:30:55.971Z,29.91
2022-08-25T14:33:26.816Z,29.91
2022-08-25T14:35:57.838Z,29.93
2022-08-25T14:38:24.977Z,30.03
2022-08-25T14:40:53.386Z,30.22
2022-08-25T14:43:24.155Z,30.40
2022-08-25T14:45:58.280Z,30.43
2022-08-25T14:48:35.463Z,30.40
2022-08-25T14:51:03.848Z,30.42
2022-08-25T14:53:30.459Z,30.43
2022-08-25T14:55:59.023Z,30.47
2022-08-25T14:58:26.875Z,30.58
2022-08-25T15:00:54.160Z,30.63
2022-08-25T15:03:32.865Z,30.63
2022-08-25T15:06:01.345Z,30.64
2022-08-25T15:08:46.720Z,30.75
2022-08-25T15:11:14.579Z,30.87
2022-08-25T15:13:44.645Z,30.90
2022-08-25T15:16:20.870Z,30.90
2022-08-25T15:18:47.631Z,30.93
2022-08-25T15:21:15.830Z,30.97
2022-08-25T15:23:44.568Z,31.07
2022-08-25T15:26:15.447Z,31.16
2022-08-25T15:28:48.640Z,31.17
2022-08-25T15:31:17.003Z,31.15
2022-08-25T15:33:44.201Z,31.22
2022-08-25T15:36:15.203Z,31.29
2022-08-25T15:38:46.709Z,31.41
2022-08-25T15:41:13.278Z,31.58
2022-08-25T15:43:39.933Z,31.75
2022-08-25T15:46:07.114Z,31.94
2022-08-25T15:48:35.253Z,32.16
2022-08-25T15:51:02.082Z,32.66
2022-08-25T15:53:31.300Z,33.27
2022-08-25T15:55:57.946Z,34.04
2022-08-25T15:58:32.423Z,34.70
2022-08-25T16:00:59.853Z,35.36
2022-08-25T16:03:27.147Z,35.92
2022-08-25T16:05:53.937Z,36.39
2022-08-25T16:08:20.657Z,36.83
2022-08-25T16:10:47.515Z,37.25
2022-08-25T16:13:14.450Z,37.83
2022-08-25T16:15:46.782Z,38.51
2022-08-25T16:18:19.600Z,39.18
2022-08-25T16:20:47.689Z,39.50
2022-08-25T16:23:16.045Z,39.58
2022-08-25T16:25:44.946Z,39.51
2022-08-25T16:28:15.830Z,39.31
2022-08-25T16:30:52.449Z,39.12
2022-08-25T16:33:20.395Z,38.95
2022-08-25T16:35:47.626Z,38.45
2022-08-25T16:38:16.011Z,38.13
2022-08-25T16:40:43.204Z,37.65
2022-08-25T16:43:10.602Z,37.08
2022-08-25T16:45:37.483Z,36.60
2022-08-25T16:48:05.681Z,36.21
2022-08-25T16:50:34.619Z,35.70
2022-08-25T16:53:20.041Z,35.26
2022-08-25T16:58:26.172Z,34.54
2022-08-25T17:00:53.525Z,34.27
2022-08-25T17:03:21.200Z,34.00
2022-08-25T17:05:48.764Z,33.71
2022-08-25T17:08:31.220Z,33.53
2022-08-25T17:11:10.777Z,33.25
2022-08-25T17:13:39.868Z,32.99
2022-08-25T17:16:12.320Z,32.77
2022-08-25T17:18:41.961Z,32.45
2022-08-25T17:21:19.539Z,32.15
2022-08-25T17:23:51.232Z,31.86
2022-08-25T17:26:18.395Z,31.61
2022-08-25T17:28:46.085Z,31.37
2022-08-25T17:31:14.325Z,31.16
2022-08-25T17:33:41.805Z,30.98
2022-08-25T17:36:09.332Z,30.77
2022-08-25T17:38:37.128Z,30.58
2022-08-25T17:41:09.002Z,30.39
2022-08-25T17:43:38.565Z,30.20
2022-08-25T17:46:05.971Z,30.05
2022-08-25T17:48:33.184Z,29.87
2022-08-25T17:51:01.103Z,29.68
2022-08-25T17:53:27.876Z,29.49
2022-08-25T17:56:00.424Z,29.30
2022-08-25T17:58:28.409Z,29.15
2022-08-25T18:00:56.735Z,29.01
2022-08-25T18:03:25.547Z,28.86
2022-08-25T18:05:53.039Z,28.72
2022-08-25T18:08:19.966Z,28.57
2022-08-25T18:10:58.655Z,28.41
2022-08-25T18:13:26.757Z,28.27
2022-08-25T18:15:55.072Z,28.13
2022-08-25T18:18:21.590Z,27.99
2022-08-25T18:20:51.118Z,27.86
2022-08-25T18:23:19.770Z,27.73
2022-08-25T18:25:48.749Z,27.57
2022-08-25T18:28:15.668Z,27.45
2022-08-25T18:30:42.779Z,27.34
2022-08-25T18:33:10.425Z,27.22
2022-08-25T18:35:38.032Z,27.12
2022-08-25T18:38:24.860Z,27.02
2022-08-25T18:41:10.535Z,26.89
2022-08-25T18:43:39.022Z,26.83
2022-08-25T18:46:06.555Z,26.73
2022-08-25T18:48:34.978Z,26.64
2022-08-25T18:51:02.444Z,26.55
2022-08-25T18:53:37.480Z,26.46
2022-08-25T18:56:16.589Z,26.38
2022-08-25T18:58:43.205Z,26.28
2022-08-25T19:01:13.596Z,26.21
2022-08-25T19:03:40.240Z,26.14
2022-08-25T19:06:07.060Z,26.08
2022-08-25T19:08:33.622Z,26.00
2022-08-25T19:11:00.169Z,25.92
2022-08-25T19:13:26.771Z,25.85
2022-08-25T19:15:53.973Z,25.79
2022-08-25T19:18:25.975Z,25.72
2022-08-25T19:20:52.748Z,25.64
2022-08-25T19:23:19.673Z,25.60
2022-08-25T19:25:46.760Z,25.54
2022-08-25T19:28:13.764Z,25.49
2022-08-25T19:30:49.777Z,25.43
2022-08-25T19:33:42.460Z,25.37
2022-08-25T19:36:08.686Z,25.31
2022-08-25T19:38:37.245Z,25.27
2022-08-25T19:41:13.909Z,25.21
2022-08-25T19:43:50.579Z,25.17
2022-08-25T19:46:23.230Z,25.12
2022-08-25T19:48:49.884Z,25.06
2022-08-25T19:51:19.363Z,25.00
2022-08-25T19:53:54.293Z,24.95
2022-08-25T19:56:22.468Z,24.91
2022-08-25T19:58:49.044Z,24.87
2022-08-25T20:01:18.181Z,24.82
2022-08-25T20:03:45.553Z,24.78
2022-08-25T20:06:15.856Z,24.75
2022-08-25T20:08:43.737Z,24.71
2022-08-25T20:11:11.005Z,24.65
2022-08-25T20:13:37.768Z,24.60
2022-08-25T20:16:05.482Z,24.55
2022-08-25T20:18:32.452Z,24.52
2022-08-25T20:20:59.040Z,24.47
2022-08-25T20:23:44.121Z,24.42
2022-08-25T20:26:10.663Z,24.38
2022-08-25T20:28:37.290Z,24.34
2022-08-25T20:31:04.060Z,24.29
2022-08-25T20:33:30.875Z,24.26
2022-08-25T20:35:58.344Z,24.22
2022-08-25T20:38:26.935Z,24.18
2022-08-25T20:40:53.453Z,24.15
2022-08-25T20:43:20.854Z,24.11
2022-08-25T20:45:47.827Z,24.07
2022-08-25T20:48:14.419Z,24.03
2022-08-25T20:50:40.965Z,24.00
2022-08-25T20:53:10.303Z,23.97
2022-08-25T20:55:43.850Z,23.94
2022-08-25T20:58:12.637Z,23.91
2022-08-25T21:00:45.691Z,23.86
2022-08-25T21:03:12.438Z,23.83
2022-08-25T21:05:41.227Z,23.81
2022-08-25T21:08:08.299Z,23.75
2022-08-25T21:10:35.205Z,23.72
2022-08-25T21:13:02.053Z,23.68
2022-08-25T21:15:28.748Z,23.66
2022-08-25T21:17:55.659Z,23.62
2022-08-25T21:20:23.908Z,23.59
2022-08-25T21:22:51.442Z,23.56
2022-08-25T21:25:21.217Z,23.54
2022-08-25T21:27:47.942Z,23.51
2022-08-25T21:30:16.183Z,23.48
2022-08-25T21:32:53.139Z,23.43
2022-08-25T21:35:22.397Z,23.40
2022-08-25T21:37:53.459Z,23.37
2022-08-25T21:40:21.764Z,23.33
2022-08-25T21:42:48.911Z,23.29
2022-08-25T21:45:15.652Z,23.26
2022-08-25T21:47:42.608Z,23.25
2022-08-25T21:50:13.825Z,23.22
2022-08-25T21:52:41.265Z,23.19
2022-08-25T21:55:15.781Z,23.16
2022-08-25T21:57:43.794Z,23.13
2022-08-25T22:00:13.038Z,23.11
2022-08-25T22:02:39.594Z,23.07
2022-08-25T22:05:11.502Z,23.02
2022-08-25T22:07:42.085Z,23.00
2022-08-25T22:10:16.801Z,22.98
2022-08-25T22:12:45.784Z,22.95
2022-08-25T22:15:13.572Z,22.92
2022-08-25T22:17:40.499Z,22.90
2022-08-25T22:20:08.391Z,22.88
2022-08-25T22:22:35.624Z,22.86
2022-08-25T22:25:03.178Z,22.84
2022-08-25T22:27:30.319Z,22.79
2022-08-25T22:29:56.977Z,22.76
2022-08-25T22:32:23.606Z,22.74
2022-08-25T22:34:50.448Z,22.72
2022-08-25T22:37:17.938Z,22.70
2022-08-25T22:39:45.727Z,22.68
2022-08-25T22:42:12.545Z,22.66
2022-08-25T22:44:40.656Z,22.64
2022-08-25T22:47:07.499Z,22.60
2022-08-25T22:49:35.475Z,22.59
2022-08-25T22:52:02.195Z,22.58
2022-08-25T22:54:29.898Z,22.55
2022-08-25T22:56:56.531Z,22.52
2022-08-25T22:59:23.360Z,22.49
2022-08-25T23:01:52.590Z,22.47
2022-08-25T23:04:21.689Z,22.44
2022-08-25T23:06:49.296Z,22.42
2022-08-25T23:09:16.029Z,22.40
2022-08-25T23:11:43.031Z,22.37
2022-08-25T23:14:11.054Z,22.35
2022-08-25T23:16:42.340Z,22.33
2022-08-25T23:19:13.976Z,22.32
2022-08-25T23:21:59.577Z,22.30
2022-08-25T23:24:29.994Z,22.28
2022-08-25T23:27:03.903Z,22.26
2022-08-25T23:29:31.767Z,22.24
2022-08-25T23:31:58.664Z,22.21
2022-08-25T23:34:26.669Z,22.20
2022-08-25T23:36:55.963Z,22.17
2022-08-25T23:39:22.544Z,22.15
2022-08-25T23:41:49.809Z,22.14
2022-08-25T23:44:17.217Z,22.13
2022-08-25T23:46:44.874Z,22.11
2022-08-25T23:49:11.809Z,22.10
2022-08-25T23:51:40.035Z,22.09
2022-08-25T23:54:10.826Z,22.08
2022-08-25T23:56:44.914Z,22.08
2022-08-25T23:59:24.322Z,22.08
